createdAt,value
2023-02-21T00:00:01.728Z,989.5972
2023-02-21T00:01:02.224Z,989.5752
2023-02-21T00:02:01.789Z,989.6324
2023-02-21T00:03:02.193Z,989.5683
2023-02-21T00:04:01.650Z,989.5466
2023-02-21T00:05:02.138Z,989.744
2023-02-21T00:06:01.706Z,989.7726
2023-02-21T00:07:03.121Z,989.661
2023-02-21T00:08:01.879Z,989.5466
2023-02-21T00:09:02.999Z,989.6324
2023-02-21T00:10:01.830Z,989.5329
2023-02-21T00:12:01.791Z,989.611
2023-02-21T00:13:02.301Z,989.5972
2023-02-21T00:14:01.719Z,989.7517
2023-02-21T00:15:02.207Z,989.5972
2023-02-21T00:16:01.732Z,989.6831
2023-02-21T00:17:02.227Z,989.5752
2023-02-21T00:18:01.646Z,989.7083
2023-02-21T00:19:02.120Z,989.8227
2023-02-21T00:20:03.326Z,989.6759
2023-02-21T00:21:02.115Z,989.8238
2023-02-21T00:22:01.596Z,989.8662
2023-02-21T00:23:02.037Z,989.8948
2023-02-21T00:24:01.510Z,989.7231
2023-02-21T00:25:01.959Z,989.7589
2023-02-21T00:26:03.174Z,989.6256
2023-02-21T00:27:01.974Z,989.7017
2023-02-21T00:28:01.502Z,989.6808
2023-02-21T00:29:01.880Z,989.7517
2023-02-21T00:30:01.435Z,989.6945
2023-02-21T00:31:01.945Z,989.661
2023-02-21T00:32:02.987Z,989.7014
2023-02-21T00:33:01.905Z,989.7369
2023-02-21T00:34:02.284Z,989.7014
2023-02-21T00:35:01.820Z,989.8733
2023-02-21T00:36:03.985Z,989.7517
2023-02-21T00:37:01.729Z,989.7083
2023-02-21T00:38:02.205Z,989.7655
2023-02-21T00:39:01.631Z,989.7369
2023-02-21T00:40:02.114Z,989.7231
2023-02-21T00:41:03.334Z,989.6828
2023-02-21T00:42:02.121Z,989.54
2023-02-21T00:43:01.555Z,989.8662
2023-02-21T00:44:03.709Z,989.6759
2023-02-21T00:45:03.245Z,989.6759
2023-02-21T00:46:03.781Z,989.6473
2023-02-21T00:47:01.488Z,989.6473
2023-02-21T00:48:01.945Z,989.7014
2023-02-21T00:49:01.502Z,989.7083
2023-02-21T00:50:01.950Z,989.6256
2023-02-21T00:51:03.199Z,989.7503
2023-02-21T00:52:01.863Z,989.8227
2023-02-21T00:53:01.314Z,989.7083
2023-02-21T00:54:01.798Z,989.8075
2023-02-21T00:55:01.308Z,989.7002
2023-02-21T00:56:03.500Z,989.5958
2023-02-21T00:57:02.280Z,989.6739
2023-02-21T00:58:01.717Z,989.7211
2023-02-21T00:59:02.287Z,989.6313
2023-02-21T01:00:01.703Z,989.5958
2023-02-21T01:01:02.260Z,989.6172
2023-02-21T01:02:01.673Z,989.5886
2023-02-21T01:03:02.209Z,989.4256
2023-02-21T01:04:01.685Z,989.4893
2023-02-21T01:05:02.134Z,989.4256
2023-02-21T01:06:01.560Z,989.4893
2023-02-21T01:07:02.071Z,989.5329
2023-02-21T01:08:01.557Z,989.6545
2023-02-21T01:09:02.072Z,989.6324
2023-02-21T01:10:01.462Z,989.5958
2023-02-21T01:11:01.948Z,989.5886
2023-02-21T01:12:01.395Z,989.4965
2023-02-21T01:13:01.962Z,989.4169
2023-02-21T01:14:01.415Z,989.3591
2023-02-21T01:15:01.890Z,989.5022
2023-02-21T01:16:01.422Z,989.5022
2023-02-21T01:17:12.731Z,989.3955
2023-02-21T01:19:01.795Z,989.5022
2023-02-21T01:20:03.961Z,989.5886
2023-02-21T01:21:01.796Z,989.4256
2023-02-21T01:22:02.282Z,989.5958
2023-02-21T01:23:01.748Z,989.6739
2023-02-21T01:24:02.203Z,989.6739
2023-02-21T01:25:01.632Z,989.3669
2023-02-21T01:26:02.128Z,989.4965
2023-02-21T01:27:01.641Z,989.239
2023-02-21T01:28:02.132Z,989.2536
2023-02-21T01:29:01.562Z,989.281
2023-02-21T01:30:02.082Z,989.3883
2023-02-21T01:31:01.602Z,989.5886
2023-02-21T01:32:02.110Z,989.3311
2023-02-21T01:33:01.488Z,989.2739
2023-02-21T01:34:01.935Z,989.3025
2023-02-21T01:35:01.481Z,989.2318
2023-02-21T01:36:01.965Z,989.3177
2023-02-21T01:37:01.420Z,989.146
2023-02-21T01:38:01.883Z,989.4256
2023-02-21T01:39:03.008Z,989.1681
2023-02-21T01:40:01.882Z,989.2032
2023-02-21T01:41:02.996Z,989.3311
2023-02-21T01:42:01.818Z,989.0101
2023-02-21T01:43:02.276Z,989.1022
2023-02-21T01:44:01.788Z,989.2446
2023-02-21T01:45:02.293Z,989.1725
2023-02-21T01:46:03.452Z,988.9871
2023-02-21T01:47:03.897Z,989.2446
2023-02-21T01:48:01.725Z,988.9376
2023-02-21T01:49:02.197Z,989.0387
2023-02-21T01:50:01.636Z,989.0315
2023-02-21T01:51:02.124Z,988.9242
2023-02-21T01:52:03.259Z,988.9743
2023-02-21T01:53:03.715Z,988.9529
2023-02-21T01:54:01.556Z,988.844
2023-02-21T01:55:02.055Z,988.7868
2023-02-21T01:56:01.494Z,988.8518
2023-02-21T01:57:03.640Z,988.7812
2023-02-21T01:58:03.131Z,988.9743
2023-02-21T01:59:01.956Z,988.9892
2023-02-21T02:00:01.404Z,988.8599
2023-02-21T02:01:03.590Z,988.774
2023-02-21T02:02:01.423Z,988.8732
2023-02-21T02:03:03.553Z,988.9877
2023-02-21T02:04:03.000Z,989.0512
2023-02-21T02:05:01.800Z,988.9939
2023-02-21T02:06:01.319Z,988.9081
2023-02-21T02:07:03.496Z,989.0729
2023-02-21T02:09:03.491Z,989.0225
2023-02-21T02:10:03.954Z,988.9504
2023-02-21T02:11:01.718Z,988.8076
2023-02-21T02:12:02.192Z,989.0285
2023-02-21T02:13:03.399Z,988.9426
2023-02-21T02:14:02.205Z,988.8931
2023-02-21T02:15:01.645Z,989.0285
2023-02-21T02:16:02.143Z,989.0639
2023-02-21T02:17:03.599Z,988.914
2023-02-21T02:18:02.134Z,988.9712
2023-02-21T02:19:01.565Z,988.914
2023-02-21T02:20:02.059Z,988.9849
2023-02-21T02:21:01.558Z,989.049
2023-02-21T02:22:02.059Z,988.891
2023-02-21T02:23:03.155Z,988.9127
2023-02-21T02:24:01.961Z,989.0773
2023-02-21T02:25:01.413Z,989.1349
2023-02-21T02:26:01.877Z,988.9414
2023-02-21T02:27:01.408Z,988.9554
2023-02-21T02:28:01.881Z,989.0559
2023-02-21T02:29:01.326Z,988.8841
2023-02-21T02:30:01.800Z,988.9986
2023-02-21T02:31:02.412Z,988.8063
2023-02-21T02:32:01.964Z,988.9342
2023-02-21T02:33:03.990Z,988.9059
2023-02-21T02:34:01.720Z,988.9768
2023-02-21T02:35:02.208Z,988.9268
2023-02-21T02:36:01.715Z,989.0559
2023-02-21T02:37:02.195Z,988.9986
2023-02-21T02:38:01.673Z,988.8409
2023-02-21T02:39:02.132Z,988.9837
2023-02-21T02:40:03.296Z,988.8841
2023-02-21T02:41:02.160Z,988.8692
2023-02-21T02:42:01.551Z,988.984
2023-02-21T02:43:02.035Z,988.797
2023-02-21T02:44:01.580Z,988.9974
2023-02-21T02:45:02.041Z,988.8406
2023-02-21T02:46:01.511Z,988.9264
2023-02-21T02:47:01.981Z,988.89
2023-02-21T02:48:03.163Z,988.811
2023-02-21T02:49:01.978Z,988.9529
2023-02-21T02:50:03.067Z,988.8097
2023-02-21T02:51:01.881Z,988.7811
2023-02-21T02:52:01.424Z,988.8384
2023-02-21T02:53:01.872Z,988.8384
2023-02-21T02:54:01.328Z,988.8465
2023-02-21T02:55:03.479Z,988.9529
2023-02-21T02:57:01.785Z,988.7674
2023-02-21T02:58:03.960Z,988.7239
2023-02-21T02:59:01.775Z,988.7239
2023-02-21T03:00:02.202Z,988.7811
2023-02-21T03:01:03.387Z,988.8097
2023-02-21T03:02:02.196Z,988.7811
2023-02-21T03:03:01.660Z,988.7239
2023-02-21T03:04:03.808Z,988.7593
2023-02-21T03:05:02.593Z,988.8097
2023-02-21T03:07:01.833Z,988.7239
2023-02-21T03:08:02.270Z,988.638
2023-02-21T03:09:01.804Z,988.7239
2023-02-21T03:10:03.953Z,988.7525
2023-02-21T03:11:01.719Z,988.732
2023-02-21T03:12:03.869Z,988.7239
2023-02-21T03:13:02.518Z,988.6803
2023-02-21T03:14:02.126Z,988.6093
2023-02-21T03:15:03.306Z,988.6093
2023-02-21T03:16:02.153Z,988.5748
2023-02-21T03:17:01.563Z,988.6174
2023-02-21T03:18:02.121Z,988.5521
2023-02-21T03:19:01.547Z,988.5234
2023-02-21T03:20:02.059Z,988.6666
2023-02-21T03:21:01.486Z,988.4102
2023-02-21T03:22:01.997Z,988.4317
2023-02-21T03:23:03.079Z,988.432
2023-02-21T03:24:01.958Z,988.5521
2023-02-21T03:25:01.389Z,988.4948
2023-02-21T03:26:03.555Z,988.5521
2023-02-21T03:27:01.324Z,988.5234
2023-02-21T03:28:01.826Z,988.4603
2023-02-21T03:29:02.279Z,988.4892
2023-02-21T03:30:01.790Z,988.3744
2023-02-21T03:31:04.059Z,988.4684
2023-02-21T03:32:01.737Z,988.6174
2023-02-21T03:33:02.245Z,988.4948
2023-02-21T03:34:03.337Z,988.638
2023-02-21T03:35:03.797Z,988.5878
2023-02-21T03:36:01.637Z,988.5303
2023-02-21T03:37:02.121Z,988.5592
2023-02-21T03:38:03.315Z,988.4948
2023-02-21T03:39:03.814Z,988.6093
2023-02-21T03:40:01.578Z,988.5521
2023-02-21T03:41:03.725Z,988.5234
2023-02-21T03:42:01.560Z,988.3747
2023-02-21T03:43:02.041Z,988.6174
2023-02-21T03:44:01.500Z,988.5234
2023-02-21T03:45:01.963Z,988.4948
2023-02-21T03:46:03.089Z,988.6012
2023-02-21T03:47:01.952Z,988.6012
2023-02-21T03:48:03.082Z,988.6871
2023-02-21T03:49:01.895Z,988.6012
2023-02-21T03:50:01.402Z,988.502
2023-02-21T03:51:03.560Z,988.5657
2023-02-21T03:52:01.330Z,988.6448
2023-02-21T03:53:01.848Z,988.5807
2023-02-21T03:54:02.278Z,988.7157
2023-02-21T03:55:01.841Z,988.5303
2023-02-21T03:56:02.291Z,988.638
2023-02-21T03:57:01.720Z,988.8384
2023-02-21T03:58:03.907Z,988.7525
2023-02-21T03:59:01.789Z,988.6093
2023-02-21T04:00:02.221Z,988.6093
2023-02-21T04:01:01.822Z,988.6093
2023-02-21T04:02:02.380Z,988.6666
2023-02-21T04:03:01.641Z,988.638
2023-02-21T04:04:02.123Z,988.6093
2023-02-21T04:05:01.742Z,988.6093
2023-02-21T04:07:03.582Z,988.5592
2023-02-21T04:08:03.004Z,988.5521
2023-02-21T04:09:01.798Z,988.502
2023-02-21T04:10:02.294Z,988.5944
2023-02-21T04:11:03.390Z,988.6165
2023-02-21T04:12:03.898Z,988.5234
2023-02-21T04:13:01.743Z,988.5944
2023-02-21T04:14:02.205Z,988.5521
2023-02-21T04:15:03.324Z,988.638
2023-02-21T04:16:02.141Z,988.5315
2023-02-21T04:17:01.637Z,988.5465
2023-02-21T04:18:03.817Z,988.4603
2023-02-21T04:19:01.560Z,988.5748
2023-02-21T04:20:02.037Z,988.6893
2023-02-21T04:21:01.562Z,988.647
2023-02-21T04:22:02.046Z,988.4902
2023-02-21T04:23:03.970Z,988.6974
2023-02-21T04:24:01.966Z,988.5257
2023-02-21T04:25:01.393Z,988.6974
2023-02-21T04:26:01.873Z,988.5829
2023-02-21T04:27:01.398Z,988.5829
2023-02-21T04:28:01.875Z,988.6893
2023-02-21T04:29:01.339Z,988.6893
2023-02-21T04:30:01.797Z,988.8038
2023-02-21T04:32:03.629Z,988.6321
2023-02-21T04:33:02.295Z,988.5325
2023-02-21T04:34:11.376Z,988.6321
2023-02-21T04:35:02.247Z,988.6691
2023-02-21T04:36:01.719Z,988.5832
2023-02-21T04:37:02.187Z,988.662
2023-02-21T04:38:01.714Z,988.6265
2023-02-21T04:39:02.201Z,988.5546
2023-02-21T04:40:01.670Z,988.7192
2023-02-21T04:41:03.797Z,988.6116
2023-02-21T04:42:03.230Z,988.8038
2023-02-21T04:43:02.028Z,988.5748
2023-02-21T04:44:01.552Z,988.5611
2023-02-21T04:45:02.072Z,988.9529
2023-02-21T04:46:03.191Z,988.6461
2023-02-21T04:47:01.955Z,988.638
2023-02-21T04:48:01.468Z,988.7811
2023-02-21T04:49:01.943Z,988.5234
2023-02-21T04:50:01.407Z,988.3529
2023-02-21T04:51:14.705Z,988.7239
2023-02-21T04:52:01.405Z,988.4603
2023-02-21T04:53:01.871Z,988.6093
2023-02-21T04:54:01.329Z,988.5234
2023-02-21T04:55:01.815Z,988.4948
2023-02-21T04:56:02.284Z,988.7525
2023-02-21T04:57:01.813Z,988.6666
2023-02-21T04:58:02.321Z,988.5807
2023-02-21T04:59:01.717Z,988.4948
2023-02-21T05:00:02.199Z,988.5521
2023-02-21T05:01:03.384Z,988.731
2023-02-21T05:02:03.064Z,988.6012
2023-02-21T05:03:01.653Z,988.5657
2023-02-21T05:04:02.270Z,988.5303
2023-02-21T05:05:01.805Z,988.638
2023-02-21T05:06:02.198Z,988.5234
2023-02-21T05:07:01.728Z,988.5521
2023-02-21T05:08:02.232Z,988.5807
2023-02-21T05:09:01.649Z,988.638
2023-02-21T05:10:02.119Z,988.4948
2023-02-21T05:11:01.660Z,988.3744
2023-02-21T05:12:02.126Z,988.4616
2023-02-21T05:13:01.556Z,988.3403
2023-02-21T05:14:02.035Z,988.3975
2023-02-21T05:15:01.559Z,988.512
2023-02-21T05:16:02.062Z,988.3621
2023-02-21T05:17:01.486Z,988.513
2023-02-21T05:18:01.952Z,988.5419
2023-02-21T05:19:01.401Z,988.5133
2023-02-21T05:20:01.882Z,988.4847
2023-02-21T05:21:03.309Z,988.5923
2023-02-21T05:22:03.556Z,988.3643
2023-02-21T05:23:13.074Z,988.3712
2023-02-21T05:24:01.787Z,988.3357
2023-02-21T05:25:02.390Z,988.3929
2023-02-21T05:26:01.814Z,988.4502
2023-02-21T05:27:02.329Z,988.4502
2023-02-21T05:28:01.720Z,988.2322
2023-02-21T05:29:02.193Z,988.4798
2023-02-21T05:30:01.672Z,988.4443
2023-02-21T05:31:02.352Z,988.3582
2023-02-21T05:32:03.398Z,988.5237
2023-02-21T05:33:02.119Z,988.444
2023-02-21T05:34:01.566Z,988.5292
2023-02-21T05:35:02.057Z,988.5864
2023-02-21T05:36:01.559Z,988.5864
2023-02-21T05:37:02.035Z,988.4512
2023-02-21T05:38:01.584Z,988.5656
2023-02-21T05:39:02.072Z,988.5084
2023-02-21T05:40:01.477Z,988.6151
2023-02-21T05:41:01.953Z,988.4502
2023-02-21T05:42:01.666Z,988.5214
2023-02-21T05:43:01.895Z,988.5201
2023-02-21T05:44:01.403Z,988.419
2023-02-21T05:45:01.878Z,988.4261
2023-02-21T05:46:01.370Z,988.4684
2023-02-21T05:47:01.794Z,988.5257
2023-02-21T05:49:01.850Z,988.4834
2023-02-21T05:50:03.954Z,988.5393
2023-02-21T05:51:03.402Z,988.5234
2023-02-21T05:52:03.874Z,988.417
2023-02-21T05:53:01.720Z,988.3884
2023-02-21T05:54:02.220Z,988.5234
2023-02-21T05:55:01.639Z,988.5807
2023-02-21T05:56:02.124Z,988.4948
2023-02-21T05:57:01.644Z,988.3816
2023-02-21T05:58:03.787Z,988.4603
2023-02-21T05:59:01.585Z,988.3539
2023-02-21T06:00:03.728Z,988.3744
2023-02-21T06:01:01.567Z,988.5029
2023-02-21T06:02:02.100Z,988.4603
2023-02-21T06:03:04.906Z,988.5521
2023-02-21T06:04:01.971Z,988.4948
2023-02-21T06:05:01.388Z,988.5234
2023-02-21T06:06:01.953Z,988.6324
2023-02-21T06:07:01.390Z,988.497
2023-02-21T06:08:01.878Z,988.6691
2023-02-21T06:09:03.008Z,988.5543
2023-02-21T06:10:01.797Z,988.5807
2023-02-21T06:11:02.320Z,988.7239
2023-02-21T06:12:03.469Z,988.582
2023-02-21T06:13:02.274Z,988.6034
2023-02-21T06:14:01.716Z,988.497
2023-02-21T06:15:02.192Z,988.5832
2023-02-21T06:16:01.808Z,988.6116
2023-02-21T06:17:02.189Z,988.8038
2023-02-21T06:18:01.621Z,988.6093
2023-02-21T06:19:02.106Z,988.6737
2023-02-21T06:20:01.639Z,988.4948
2023-02-21T06:21:02.142Z,988.7301
2023-02-21T06:22:01.557Z,988.8001
2023-02-21T06:23:02.032Z,988.5492
2023-02-21T06:24:01.551Z,988.6703
2023-02-21T06:25:02.042Z,988.7767
2023-02-21T06:26:01.531Z,988.7696
2023-02-21T06:27:03.652Z,988.7767
2023-02-21T06:28:03.140Z,988.669
2023-02-21T06:29:01.949Z,988.6472
2023-02-21T06:30:01.393Z,988.6758
2023-02-21T06:31:01.880Z,988.8259
2023-02-21T06:32:01.426Z,988.7253
2023-02-21T06:33:01.902Z,988.6104
2023-02-21T06:34:01.331Z,988.7745
2023-02-21T06:35:01.801Z,988.6095
2023-02-21T06:36:02.273Z,988.6599
2023-02-21T06:37:01.791Z,988.5245
2023-02-21T06:38:02.308Z,988.6895
2023-02-21T06:39:01.713Z,988.7172
2023-02-21T06:40:02.203Z,988.81
2023-02-21T06:41:03.284Z,988.7745
2023-02-21T06:42:02.223Z,988.6954
2023-02-21T06:43:01.628Z,988.7527
2023-02-21T06:44:02.133Z,988.6954
2023-02-21T06:45:01.635Z,988.6736
2023-02-21T06:46:02.194Z,988.8742
2023-02-21T06:47:01.594Z,988.725
2023-02-21T06:48:02.044Z,988.8832
2023-02-21T06:49:01.560Z,988.8259
2023-02-21T06:50:02.084Z,988.74
2023-02-21T06:51:01.488Z,988.6827
2023-02-21T06:52:01.969Z,988.7973
2023-02-21T06:53:01.503Z,989.0769
2023-02-21T06:54:01.966Z,988.7755
2023-02-21T06:55:01.408Z,988.74
2023-02-21T06:56:01.885Z,988.811
2023-02-21T06:57:01.334Z,988.811
2023-02-21T06:58:03.515Z,988.8683
2023-02-21T06:59:02.285Z,989.1124
2023-02-21T07:00:01.831Z,989.155
2023-02-21T07:01:02.292Z,989.1124
2023-02-21T07:02:01.868Z,989.1124
2023-02-21T07:03:02.206Z,989.155
2023-02-21T07:04:01.775Z,989.0769
2023-02-21T07:05:03.885Z,989.0769
2023-02-21T07:06:01.645Z,989.235
2023-02-21T07:07:03.804Z,989.1628
2023-02-21T07:08:01.652Z,989.1914
2023-02-21T07:09:03.854Z,989.2833
2023-02-21T07:10:03.252Z,989.2407
2023-02-21T07:11:02.053Z,989.3048
2023-02-21T07:12:01.481Z,989.2407
2023-02-21T07:13:01.968Z,989.2983
2023-02-21T07:14:03.197Z,989.306
2023-02-21T07:15:01.964Z,989.5352
2023-02-21T07:16:01.436Z,989.3209
2023-02-21T07:17:03.570Z,989.5432
2023-02-21T07:18:01.440Z,989.4794
2023-02-21T07:19:03.582Z,989.5716
2023-02-21T07:20:01.665Z,989.3934
2023-02-21T07:21:01.866Z,989.5716
2023-02-21T07:22:02.344Z,989.4221
2023-02-21T07:23:03.481Z,989.4794
2023-02-21T07:24:02.288Z,989.5143
2023-02-21T07:25:01.766Z,989.7271
2023-02-21T07:26:02.235Z,989.508
2023-02-21T07:27:01.735Z,989.5229
2023-02-21T07:28:02.248Z,989.6441
2023-02-21T07:29:01.773Z,989.5229
2023-02-21T07:30:02.214Z,989.5733
2023-02-21T07:31:01.764Z,989.7352
2023-02-21T07:32:02.223Z,989.6779
2023-02-21T07:33:01.716Z,989.4874
2023-02-21T07:34:02.138Z,989.5939
2023-02-21T07:35:01.642Z,989.5939
2023-02-21T07:36:02.117Z,989.7051
2023-02-21T07:37:01.637Z,989.5787
2023-02-21T07:38:02.124Z,989.5787
2023-02-21T07:39:01.576Z,989.7543
2023-02-21T07:40:02.101Z,989.5787
2023-02-21T07:41:01.598Z,989.4928
2023-02-21T07:42:03.718Z,989.5638
2023-02-21T07:43:01.560Z,989.6211
2023-02-21T07:44:02.053Z,989.8254
2023-02-21T07:45:01.518Z,989.7099
2023-02-21T07:46:02.068Z,989.7099
2023-02-21T07:47:01.491Z,989.7099
2023-02-21T07:48:03.557Z,989.7099
2023-02-21T07:49:01.396Z,989.6959
2023-02-21T07:50:01.901Z,989.634
2023-02-21T07:51:01.403Z,989.8601
2023-02-21T07:52:01.876Z,989.8738
2023-02-21T07:53:01.314Z,989.8165
2023-02-21T07:54:01.802Z,989.7019
2023-02-21T07:56:01.828Z,989.7019
2023-02-21T07:57:02.283Z,989.7374
2023-02-21T07:58:03.390Z,989.6328
2023-02-21T07:59:02.273Z,989.6942
2023-02-21T08:00:01.731Z,989.7374
2023-02-21T08:01:02.317Z,989.8521
2023-02-21T08:02:02.737Z,989.8088
2023-02-21T08:03:01.400Z,989.7228
2023-02-21T08:04:02.580Z,989.8948
2023-02-21T08:05:01.402Z,989.6942
2023-02-21T08:06:03.579Z,989.8948
2023-02-21T08:07:01.327Z,989.8521
2023-02-21T08:08:01.817Z,989.8948
2023-02-21T08:09:02.291Z,989.8088
2023-02-21T08:10:01.799Z,989.9303
2023-02-21T08:11:03.973Z,989.9658
2023-02-21T08:12:01.742Z,989.73
2023-02-21T08:13:03.890Z,989.8948
2023-02-21T08:14:01.645Z,990.0094
2023-02-21T08:15:02.115Z,990.0094
2023-02-21T08:16:01.679Z,989.9019
2023-02-21T08:17:02.143Z,990.0452
2023-02-21T08:18:01.553Z,989.9658
2023-02-21T08:19:02.040Z,989.973
2023-02-21T08:20:01.488Z,990.0372
2023-02-21T08:21:01.958Z,989.9223
2023-02-21T08:22:03.183Z,989.865
2023-02-21T08:23:01.957Z,989.9226
2023-02-21T08:24:01.423Z,989.8077
2023-02-21T08:25:01.903Z,990.1934
2023-02-21T08:26:01.355Z,989.879
2023-02-21T08:27:03.515Z,989.965
2023-02-21T08:29:01.835Z,989.9068
2023-02-21T08:30:02.301Z,989.8495
2023-02-21T08:31:01.755Z,989.9642
2023-02-21T08:32:02.259Z,989.9068
2023-02-21T08:33:01.749Z,989.9928
2023-02-21T08:34:02.204Z,989.8209
2023-02-21T08:35:03.318Z,989.9642
2023-02-21T08:36:02.124Z,989.9779
2023-02-21T08:37:01.640Z,989.8633
2023-02-21T08:38:02.132Z,989.806
2023-02-21T08:39:01.568Z,989.8633
2023-02-21T08:40:02.115Z,989.8988
2023-02-21T08:41:01.569Z,990.1063
2023-02-21T08:42:02.040Z,989.8702
2023-02-21T08:43:01.503Z,989.877
2023-02-21T08:44:02.059Z,989.9126
2023-02-21T08:45:03.167Z,989.9768
2023-02-21T08:46:01.960Z,990.0264
2023-02-21T08:47:01.478Z,989.9837
2023-02-21T08:48:01.881Z,990.0264
2023-02-21T08:49:01.551Z,990.0264
2023-02-21T08:50:01.884Z,990.0264
2023-02-21T08:51:01.326Z,990.0548
2023-02-21T08:52:01.891Z,989.7108
2023-02-21T08:53:01.320Z,989.7314
2023-02-21T08:54:03.525Z,990.0391
2023-02-21T08:55:02.283Z,989.9677
2023-02-21T08:56:01.760Z,989.695
2023-02-21T08:57:03.880Z,989.773
2023-02-21T08:58:01.724Z,989.8521
2023-02-21T08:59:02.236Z,989.7799
2023-02-21T09:00:01.645Z,989.8662
2023-02-21T09:01:03.216Z,989.9588
2023-02-21T09:02:03.511Z,989.9442
2023-02-21T09:03:02.304Z,989.9153
2023-02-21T09:04:03.415Z,990.0013
2023-02-21T09:05:02.225Z,989.7719
2023-02-21T09:06:01.746Z,989.7581
2023-02-21T09:07:02.196Z,989.8869
2023-02-21T09:08:01.921Z,989.966
2023-02-21T09:09:02.194Z,989.9875
2023-02-21T09:10:01.696Z,989.9726
2023-02-21T09:11:02.157Z,989.8005
2023-02-21T09:12:01.633Z,989.872
2023-02-21T09:13:02.145Z,990.0085
2023-02-21T09:14:03.230Z,989.8502
2023-02-21T09:15:02.040Z,989.9787
2023-02-21T09:16:01.622Z,989.8926
2023-02-21T09:17:02.042Z,989.8502
2023-02-21T09:18:01.500Z,989.7997
2023-02-21T09:19:01.967Z,990.0004
2023-02-21T09:20:03.153Z,989.9285
2023-02-21T09:21:01.955Z,990.0145
2023-02-21T09:22:01.778Z,989.9787
2023-02-21T09:23:03.565Z,989.9431
2023-02-21T09:24:03.076Z,989.8215
2023-02-21T09:25:01.868Z,990.0934
2023-02-21T09:26:01.370Z,989.8215
2023-02-21T09:27:01.798Z,989.8926
2023-02-21T09:28:02.299Z,989.9285
2023-02-21T09:29:01.839Z,989.8424
2023-02-21T09:30:02.303Z,989.8424
2023-02-21T09:31:01.743Z,989.9858
2023-02-21T09:32:02.395Z,989.8421
2023-02-21T09:33:03.491Z,989.8849
2023-02-21T09:34:02.208Z,989.8987
2023-02-21T09:35:01.737Z,989.8275
2023-02-21T09:36:02.217Z,989.8275
2023-02-21T09:37:03.319Z,989.956
2023-02-21T09:38:02.229Z,989.9124
2023-02-21T09:39:01.642Z,989.8757
2023-02-21T09:40:02.126Z,989.8898
2023-02-21T09:41:01.646Z,989.975
2023-02-21T09:42:02.135Z,989.8878
2023-02-21T09:43:03.258Z,989.9165
2023-02-21T09:44:02.141Z,989.7578
2023-02-21T09:45:04.777Z,989.7934
2023-02-21T09:46:02.148Z,989.7501
2023-02-21T09:47:01.586Z,989.7352
2023-02-21T09:48:02.045Z,989.8135
2023-02-21T09:49:01.491Z,989.7917
2023-02-21T09:50:01.957Z,989.8629
2023-02-21T09:51:01.485Z,989.8985
2023-02-21T09:52:01.974Z,989.7825
2023-02-21T09:53:01.500Z,989.8035
2023-02-21T09:54:01.958Z,990.0481
2023-02-21T09:55:01.437Z,989.7096
2023-02-21T09:56:01.866Z,989.8018
2023-02-21T09:57:01.399Z,989.9373
2023-02-21T09:58:01.921Z,989.9807
2023-02-21T09:59:01.325Z,989.7363
2023-02-21T10:00:01.911Z,989.9006
2023-02-21T10:01:01.348Z,989.9224
2023-02-21T10:02:03.482Z,989.7926
2023-02-21T10:03:02.312Z,989.7283
2023-02-21T10:04:03.391Z,989.7076
2023-02-21T10:05:02.236Z,989.8294
2023-02-21T10:06:02.831Z,989.7145
2023-02-21T10:07:02.196Z,989.8354
2023-02-21T10:08:01.674Z,989.8351
2023-02-21T10:09:02.112Z,989.7271
2023-02-21T10:10:01.635Z,989.7406
2023-02-21T10:11:02.130Z,989.7765
2023-02-21T10:12:01.554Z,989.9055
2023-02-21T10:13:02.060Z,989.761
2023-02-21T10:14:01.566Z,989.7886
2023-02-21T10:15:02.047Z,989.9602
2023-02-21T10:16:01.475Z,989.7797
2023-02-21T10:17:01.962Z,989.7579
2023-02-21T10:18:03.183Z,989.9226
2023-02-21T10:19:03.546Z,989.7797
2023-02-21T10:20:01.406Z,989.9223
2023-02-21T10:21:01.884Z,989.8065
2023-02-21T10:22:01.388Z,989.9352
2023-02-21T10:23:01.895Z,989.9629
2023-02-21T10:24:03.084Z,989.7104
2023-02-21T10:25:01.806Z,989.9629
2023-02-21T10:26:02.279Z,990.0485
2023-02-21T10:27:01.803Z,989.7737
2023-02-21T10:28:02.302Z,989.8887
2023-02-21T10:29:01.751Z,990.184
2023-02-21T10:30:02.218Z,989.8631
2023-02-21T10:31:01.841Z,989.972
2023-02-21T10:32:02.220Z,989.8858
2023-02-21T10:33:01.647Z,989.8065
2023-02-21T10:34:02.200Z,989.849
2023-02-21T10:35:01.675Z,989.857
2023-02-21T10:36:02.127Z,990.0582
2023-02-21T10:37:01.590Z,989.9283
2023-02-21T10:38:02.123Z,990.0502
2023-02-21T10:39:01.565Z,990.1279
2023-02-21T10:40:02.070Z,989.8631
2023-02-21T10:41:01.562Z,990.1732
2023-02-21T10:42:02.098Z,989.9521
2023-02-21T10:43:01.562Z,989.8809
2023-02-21T10:44:03.735Z,990.0817
2023-02-21T10:45:01.495Z,990.0165
2023-02-21T10:46:02.017Z,990.0663
2023-02-21T10:47:01.408Z,990.0582
2023-02-21T10:48:01.885Z,989.7866
2023-02-21T10:49:01.406Z,989.9521
2023-02-21T10:50:03.567Z,990.0243
2023-02-21T10:51:01.419Z,989.9521
2023-02-21T10:52:01.897Z,990.1732
2023-02-21T10:54:03.510Z,989.8918
2023-02-21T10:55:02.320Z,989.8102
2023-02-21T10:56:01.773Z,989.9739
2023-02-21T10:57:02.215Z,989.8508
2023-02-21T10:58:01.738Z,989.8508
2023-02-21T10:59:02.254Z,989.9431
2023-02-21T11:00:01.745Z,989.8131
2023-02-21T11:01:02.250Z,989.984
2023-02-21T11:02:01.740Z,989.869
2023-02-21T11:03:02.129Z,989.8925
2023-02-21T11:04:01.650Z,989.9083
2023-02-21T11:05:02.140Z,989.8301
2023-02-21T11:06:03.251Z,989.8726
2023-02-21T11:07:02.047Z,989.7438
2023-02-21T11:08:01.582Z,989.8082
2023-02-21T11:09:02.065Z,989.8312
2023-02-21T11:10:03.177Z,989.839
2023-02-21T11:11:01.957Z,989.8815
2023-02-21T11:12:01.486Z,989.7588
2023-02-21T11:13:01.983Z,989.8025
2023-02-21T11:14:01.405Z,989.745
2023-02-21T11:15:01.883Z,989.822
2023-02-21T11:16:01.462Z,989.8301
2023-02-21T11:17:03.565Z,989.7726
2023-02-21T11:18:01.338Z,989.9302
2023-02-21T11:19:01.821Z,990.0234
2023-02-21T11:21:01.814Z,989.7783
2023-02-21T11:22:03.970Z,989.7916
2023-02-21T11:23:01.729Z,989.8203
2023-02-21T11:24:02.332Z,989.7191
2023-02-21T11:25:01.727Z,989.753
2023-02-21T11:26:02.227Z,989.6102
2023-02-21T11:27:03.321Z,989.639
2023-02-21T11:28:02.234Z,989.5662
2023-02-21T11:29:01.661Z,989.7277
2023-02-21T11:30:02.133Z,989.571
2023-02-21T11:31:01.688Z,989.5552
2023-02-21T11:32:02.177Z,989.6467
2023-02-21T11:33:01.581Z,989.5891
2023-02-21T11:34:02.043Z,989.6467
2023-02-21T11:35:01.591Z,989.5441
2023-02-21T11:36:02.047Z,989.6132
2023-02-21T11:37:01.558Z,989.6541
2023-02-21T11:38:02.048Z,989.6253
2023-02-21T11:39:03.165Z,989.51
2023-02-21T11:40:02.016Z,989.5965
2023-02-21T11:41:01.468Z,989.6213
2023-02-21T11:42:01.962Z,989.4989
2023-02-21T11:43:01.477Z,989.4638
2023-02-21T11:44:03.556Z,989.5913
2023-02-21T11:45:01.439Z,989.5694
2023-02-21T11:46:03.637Z,989.4347
2023-02-21T11:47:01.348Z,989.3923
2023-02-21T11:48:01.888Z,989.5441
2023-02-21T11:49:02.280Z,989.3713
2023-02-21T11:50:01.808Z,989.3413
2023-02-21T11:51:02.271Z,989.4542
2023-02-21T11:52:01.805Z,989.4158
2023-02-21T11:53:02.288Z,989.4425
2023-02-21T11:54:01.713Z,989.2141
2023-02-21T11:55:02.189Z,989.3729
2023-02-21T11:56:01.711Z,989.3371
2023-02-21T11:57:02.191Z,989.5944
2023-02-21T11:58:01.615Z,989.3729
2023-02-21T11:59:03.823Z,989.2567